Big Bear Station Historical Data
Daily Summary for July 10, 2019 Units:  English    Metric   Both
Next Day »
Daily Weekly Monthly Yearly Custom
  High: Low: Average:
Temperature: 80.8 °F 46.2 °F 63.3 °F
Dew Point: 49.2 °F 38.3 °F 43.5 °F
Humidity: 85% 26% 53%
Wind Speed: 9.9mph 0mph 0.4mph
Wind Gust: -999mph - -
Wind- - WNW
Pressure: 23.68 in 23.62 in -
Precipitation: 0 in    
Historical Graphs
 
 
Tabular Data for July 10, 2019
Time Temperature Dew Point Pressure Wind Wind Speed Wind Gust Humidity Rainfall Rate (Hourly)
00:04 52 °F 40.6 °F 23.64 in Calm   -999 mph 65% 0.00 in
00:19 51.4 °F 40.8 °F 23.64 in Calm   -999 mph 67% 0.00 in
00:35 51.3 °F 40.3 °F 23.64 in Calm   -999 mph 66% 0.00 in
00:50 50.9 °F 40.7 °F 23.63 in Calm   -999 mph 68% 0.00 in
01:05 50.7 °F 40.5 °F 23.63 in Calm   -999 mph 68% 0.00 in
01:20 50.4 °F 39.9 °F 23.63 in Calm   -999 mph 67% 0.00 in
01:35 50.2 °F 41.2 °F 23.63 in Calm   -999 mph 71% 0.00 in
01:51 49.8 °F 41.5 °F 23.63 in Calm   -999 mph 73% 0.00 in
02:06 49.5 °F 40.8 °F 23.63 in Calm   -999 mph 72% 0.00 in
02:21 49.5 °F 41.9 °F 23.63 in Calm   -999 mph 75% 0.00 in
02:36 49.1 °F 42.2 °F 23.63 in Calm   -999 mph 77% 0.00 in
02:51 48.9 °F 41.7 °F 23.63 in Calm   -999 mph 76% 0.00 in
03:07 48.7 °F 41.5 °F 23.62 in Calm   -999 mph 76% 0.00 in
03:22 48.6 °F 41.7 °F 23.63 in Calm   -999 mph 77% 0.00 in
03:37 48.2 °F 40.3 °F 23.63 in Calm   -999 mph 74% 0.00 in
03:52 48.2 °F 39.2 °F 23.63 in Calm   -999 mph 71% 0.00 in
04:08 47.8 °F 40.6 °F 23.63 in Calm   -999 mph 76% 0.00 in
04:23 47.7 °F 39.1 °F 23.63 in Calm   -999 mph 72% 0.00 in
04:38 47.7 °F 39.1 °F 23.63 in Calm   -999 mph 72% 0.00 in
04:53 47.7 °F 40.2 °F 23.64 in Calm   -999 mph 75% 0.00 in
05:08 47.3 °F 40.5 °F 23.64 in Calm   -999 mph 77% 0.00 in
05:24 46.8 °F 40 °F 23.64 in Calm   -999 mph 77% 0.00 in
05:39 46.8 °F 39.3 °F 23.64 in Calm   -999 mph 75% 0.00 in
05:54 46.6 °F 40.4 °F 23.65 in Calm   -999 mph 79% 0.00 in
06:09 46.2 °F 41 °F 23.65 in Calm   -999 mph 82% 0.00 in
06:24 46.6 °F 41.7 °F 23.66 in Calm   -999 mph 83% 0.00 in
06:40 47.3 °F 43 °F 23.66 in Calm   -999 mph 85% 0.00 in
06:55 47.1 °F 42.5 °F 23.66 in Calm   -999 mph 84% 0.00 in
07:10 47.8 °F 43.2 °F 23.66 in Calm   -999 mph 84% 0.00 in
07:25 49.8 °F 43.9 °F 23.66 in Calm   -999 mph 80% 0.00 in
07:40 49.8 °F 44.5 °F 23.66 in Calm   -999 mph 82% 0.00 in
07:56 50.9 °F 45.3 °F 23.66 in Calm   -999 mph 81% 0.00 in
08:11 52.9 °F 46.9 °F 23.67 in Calm   -999 mph 80% 0.00 in
08:26 54.9 °F 48.2 °F 23.66 in Calm   -999 mph 78% 0.00 in
08:41 56.7 °F 48.9 °F 23.67 in Calm   -999 mph 75% 0.00 in
08:56 58.6 °F 47.3 °F 23.67 in Calm   -999 mph 66% 0.00 in
09:12 61.7 °F 46.8 °F 23.67 in Calm   -999 mph 58% 0.00 in
09:27 64.8 °F 42.4 °F 23.67 in Calm   -999 mph 44% 0.00 in
09:42 68 °F 42.1 °F 23.67 in Calm   -999 mph 39% 0.00 in
09:57 69.6 °F 42.9 °F 23.67 in Calm   -999 mph 38% 0.00 in
10:12 71.2 °F 42.1 °F 23.67 in Calm   -999 mph 35% 0.00 in
10:28 72 °F 40.5 °F 23.67 in Calm   -999 mph 32% 0.00 in
10:43 73 °F 41.4 °F 23.67 in Calm   -999 mph 32% 0.00 in
10:58 74.3 °F 40.9 °F 23.67 in Calm   -999 mph 30% 0.00 in
11:13 75.6 °F 38.3 °F 23.67 in Calm   -999 mph 26% 0.00 in
11:29 77 °F 40.5 °F 23.68 in Calm   -999 mph 27% 0.00 in
11:44 77.5 °F 39.9 °F 23.68 in Calm   -999 mph 26% 0.00 in
11:59 78.4 °F 44.4 °F 23.68 in Calm   -999 mph 30% 0.00 in
12:14 78.8 °F 42.9 °F 23.68 in NW 9.9 mph -999 mph 28% 0.00 in
12:29 80.8 °F 45.6 °F 23.68 in WNW 4.7 mph -999 mph 29% 0.00 in
12:45 79.9 °F 45.7 °F 23.68 in Calm   -999 mph 30% 0.00 in
13:00 78.6 °F 46.3 °F 23.68 in WNW 2.2 mph -999 mph 32% 0.00 in
13:15 80.1 °F 47.6 °F 23.68 in NE 2.2 mph -999 mph 32% 0.00 in
13:31 80.4 °F 47 °F 23.68 in Calm   -999 mph 31% 0.00 in
13:46 80.2 °F 46.8 °F 23.68 in NW 1.7 mph -999 mph 31% 0.00 in
14:01 79.7 °F 46.4 °F 23.68 in NW 1.1 mph -999 mph 31% 0.00 in
14:16 80.6 °F 47.2 °F 23.68 in Calm   -999 mph 31% 0.00 in
14:32 78.8 °F 45.6 °F 23.67 in Calm   -999 mph 31% 0.00 in
14:47 79.5 °F 46.2 °F 23.67 in Calm   -999 mph 31% 0.00 in
15:02 79.2 °F 46.8 °F 23.67 in NNW 2.7 mph -999 mph 32% 0.00 in
15:17 79.9 °F 46.6 °F 23.67 in Calm   -999 mph 31% 0.00 in
15:33 79.3 °F 48.5 °F 23.66 in Calm   -999 mph 34% 0.00 in
15:48 79.3 °F 46.9 °F 23.66 in NW 3.7 mph -999 mph 32% 0.00 in
16:03 78.6 °F 47.1 °F 23.66 in Calm   -999 mph 33% 0.00 in
16:18 77.5 °F 46.1 °F 23.66 in Calm   -999 mph 33% 0.00 in
16:33 78.8 °F 46.5 °F 23.66 in Calm   -999 mph 32% 0.00 in
16:49 79 °F 46.6 °F 23.66 in Calm   -999 mph 32% 0.00 in
17:04 79.9 °F 46.6 °F 23.66 in NW 2.7 mph -999 mph 31% 0.00 in
17:19 78.4 °F 46.9 °F 23.66 in North 1.7 mph -999 mph 33% 0.00 in
17:34 79.2 °F 46 °F 23.65 in Calm   -999 mph 31% 0.00 in
17:49 79.5 °F 46.2 °F 23.65 in NNW 1.1 mph -999 mph 31% 0.00 in
18:05 79 °F 46.6 °F 23.65 in Calm   -999 mph 32% 0.00 in
18:20 78.8 °F 48.1 °F 23.65 in Calm   -999 mph 34% 0.00 in
18:35 78.4 °F 49.2 °F 23.65 in Calm   -999 mph 36% 0.00 in
18:50 75.4 °F 47.3 °F 23.66 in Calm   -999 mph 37% 0.00 in
19:05 75.6 °F 47.5 °F 23.66 in Calm   -999 mph 37% 0.00 in
19:21 73.2 °F 48.7 °F 23.66 in Calm   -999 mph 42% 0.00 in
19:36 70.7 °F 48.3 °F 23.66 in Calm   -999 mph 45% 0.00 in
19:51 68 °F 48.1 °F 23.66 in Calm   -999 mph 49% 0.00 in
20:06 66.2 °F 46.5 °F 23.66 in Calm   -999 mph 49% 0.00 in
20:21 64 °F 44.5 °F 23.66 in Calm   -999 mph 49% 0.00 in
20:37 63.5 °F 42.3 °F 23.66 in Calm   -999 mph 46% 0.00 in
20:52 62.2 °F 42.8 °F 23.66 in Calm   -999 mph 49% 0.00 in
21:07 60.6 °F 43.4 °F 23.66 in Calm   -999 mph 53% 0.00 in
21:22 59.9 °F 42.2 °F 23.67 in Calm   -999 mph 52% 0.00 in
21:37 58.8 °F 41.7 °F 23.67 in Calm   -999 mph 53% 0.00 in
21:53 58.1 °F 40.6 °F 23.67 in Calm   -999 mph 52% 0.00 in
22:08 57.6 °F 41.1 °F 23.68 in Calm   -999 mph 54% 0.00 in
22:23 57 °F 41 °F 23.67 in Calm   -999 mph 55% 0.00 in
22:38 56.5 °F 40.5 °F 23.67 in Calm   -999 mph 55% 0.00 in
22:54 55.9 °F 41.8 °F 23.67 in Calm   -999 mph 59% 0.00 in
23:09 55 °F 41.4 °F 23.67 in Calm   -999 mph 60% 0.00 in
23:24 54.7 °F 41.1 °F 23.67 in Calm   -999 mph 60% 0.00 in
23:39 54.1 °F 40.5 °F 23.67 in Calm   -999 mph 60% 0.00 in
23:54 53.6 °F 40 °F 23.67 in Calm   -999 mph 60% 0.00 in
Big Bear CA Weather